Time;durP1;ratioP1;P1;durP2;ratioP2;P2;SDS_P1;SDS_P2;PMS_P1;PMS_P2;Temp;Humidity;BMP_temperature;BMP_pressure;BME280_temperature;BME280_humidity;BME280_pressure;Samples;Min_cycle;Max_cycle;Signal;HPM_P1;HPM_P2
2023/07/06 00:01:45;;;;;;;6.80;2.15;;;;;;;18.91;83.69;98746.31;5135504;27;20388;-79
2023/07/06 00:04:29;;;;;;;5.15;2.45;;;;;;;19.00;83.20;98759.13;5136999;27;20029;-78
2023/07/06 00:07:20;;;;;;;6.90;2.35;;;;;;;19.17;82.91;98737.72;5152874;27;20069;-78
2023/07/06 00:10:05;;;;;;;6.10;2.40;;;;;;;18.79;83.84;98748.34;5152567;27;20403;-78
2023/07/06 00:12:49;;;;;;;7.85;2.28;;;;;;;18.78;83.80;98747.56;5151944;27;20042;-78
2023/07/06 00:15:36;;;;;;;3.58;2.10;;;;;;;18.93;83.97;98751.34;5149280;27;20064;-78
2023/07/06 00:18:23;;;;;;;8.02;2.05;;;;;;;18.82;84.15;98743.31;5136608;27;20041;-78
2023/07/06 00:21:08;;;;;;;3.53;2.05;;;;;;;18.86;84.05;98758.75;5151762;27;20088;-77
2023/07/06 00:23:52;;;;;;;9.40;2.70;;;;;;;18.88;83.86;98754.81;5137505;27;20073;-79
2023/07/06 00:26:36;;;;;;;10.73;2.65;;;;;;;18.94;83.89;98760.94;5152476;27;20171;-78
2023/07/06 00:29:20;;;;;;;5.43;2.38;;;;;;;18.80;84.41;98765.91;5153166;27;20077;-78
2023/07/06 00:32:15;;;;;;;8.25;2.72;;;;;;;18.83;84.22;98762.72;5151419;27;20069;-79
2023/07/06 00:35:00;;;;;;;6.32;2.22;;;;;;;18.69;84.63;98760.53;5152613;27;20202;-78
2023/07/06 00:37:44;;;;;;;6.25;2.60;;;;;;;18.84;84.21;98770.47;5137616;27;20041;-78
2023/07/06 00:40:32;;;;;;;6.13;2.42;;;;;;;18.66;84.56;98761.00;5136232;27;20042;-79
2023/07/06 00:43:21;;;;;;;3.55;2.00;;;;;;;18.72;84.70;98769.03;5152598;27;20045;-78
2023/07/06 00:46:10;;;;;;;5.65;2.45;;;;;;;18.40;85.51;98773.31;5152751;27;20398;-78
2023/07/06 00:48:54;;;;;;;5.30;2.50;;;;;;;18.66;85.01;98766.31;5151927;27;20050;-78
2023/07/06 00:51:40;;;;;;;6.35;2.35;;;;;;;18.76;84.84;98776.22;5151540;27;20559;-78
2023/07/06 00:54:27;;;;;;;7.18;2.30;;;;;;;18.81;84.46;98772.81;5150801;27;20067;-78
2023/07/06 00:57:14;;;;;;;6.80;2.30;;;;;;;18.75;84.70;98768.53;5151817;27;20050;-78
2023/07/06 00:59:59;;;;;;;5.38;2.70;;;;;;;18.49;85.43;98771.00;5135643;27;20057;-77
2023/07/06 01:02:44;;;;;;;6.85;3.17;;;;;;;18.39;86.07;98772.50;5136344;27;20038;-78
2023/07/06 01:05:33;;;;;;;8.90;2.28;;;;;;;18.21;86.61;98765.72;5135153;27;20045;-77
2023/07/06 01:08:20;;;;;;;7.13;2.78;;;;;;;17.92;88.19;98770.44;5135075;27;20071;-77
2023/07/06 01:11:06;;;;;;;6.35;2.50;;;;;;;18.03;88.56;98780.13;5135948;27;20540;-77
2023/07/06 01:13:52;;;;;;;7.57;2.70;;;;;;;17.90;89.13;98776.00;5136307;27;20056;-76
2023/07/06 01:16:43;;;;;;;7.82;3.15;;;;;;;17.70;89.82;98776.56;5136639;27;20083;-78
2023/07/06 01:19:51;;;;;;;9.80;3.42;;;;;;;18.00;89.19;98780.59;5149436;27;20038;-78
2023/07/06 01:22:48;;;;;;;8.75;3.13;;;;;;;18.01;89.28;98774.25;5137048;27;20042;-77
2023/07/06 01:25:47;;;;;;;5.88;2.67;;;;;;;17.97;89.69;98770.50;5152280;27;20552;-77
2023/07/06 01:28:53;;;;;;;8.65;3.20;;;;;;;18.11;89.02;98762.94;5134990;27;20107;-76
2023/07/06 01:31:51;;;;;;;11.23;3.03;;;;;;;18.07;89.31;98767.94;5135639;27;20042;-77
2023/07/06 01:34:53;;;;;;;7.60;2.97;;;;;;;18.11;89.17;98769.06;5134681;27;20061;-77
2023/07/06 01:37:41;;;;;;;7.43;3.10;;;;;;;18.13;89.36;98769.63;5134297;27;20038;-77
2023/07/06 01:40:25;;;;;;;9.73;2.92;;;;;;;18.04;89.21;98759.69;5151889;27;20080;-78
2023/07/06 01:43:10;;;;;;;7.18;3.20;;;;;;;18.30;88.48;98758.09;5151377;27;20769;-77
2023/07/06 01:45:55;;;;;;;6.05;2.75;;;;;;;18.15;89.36;98760.59;5151119;27;20042;-77
2023/07/06 01:48:39;;;;;;;5.22;2.80;;;;;;;17.92;90.13;98765.13;5150111;27;20054;-77
2023/07/06 01:51:32;;;;;;;9.15;2.95;;;;;;;17.85;90.57;98763.44;5150179;27;20061;-76
2023/07/06 01:54:23;;;;;;;7.72;3.08;;;;;;;17.72;90.82;98763.03;5152012;27;20045;-77
2023/07/06 01:57:18;;;;;;;11.32;3.08;;;;;;;17.75;91.17;98773.16;5135347;27;20114;-77
2023/07/06 02:00:09;;;;;;;6.03;2.97;;;;;;;17.37;92.17;98757.06;5149554;27;20054;-78
2023/07/06 02:02:55;;;;;;;7.93;3.20;;;;;;;17.55;92.33;98758.59;5134902;27;20752;-77
2023/07/06 02:05:40;;;;;;;7.68;3.25;;;;;;;17.53;92.35;98745.59;5150317;27;20473;-78
2023/07/06 02:08:26;;;;;;;12.02;3.30;;;;;;;17.46;93.10;98754.78;5135716;27;20387;-78
2023/07/06 02:11:20;;;;;;;11.45;3.50;;;;;;;17.40;92.96;98744.13;5151725;27;20127;-77
2023/07/06 02:14:05;;;;;;;8.23;3.45;;;;;;;17.28;93.66;98741.56;5134589;27;20049;-78
2023/07/06 02:16:51;;;;;;;8.60;4.18;;;;;;;17.38;93.88;98748.06;5135799;27;20053;-77
2023/07/06 02:19:36;;;;;;;11.15;3.63;;;;;;;17.60;93.20;98752.56;5134000;27;20499;-78
2023/07/06 02:22:21;;;;;;;9.55;3.67;;;;;;;17.44;93.61;98749.72;5148163;27;20129;-77
2023/07/06 02:25:06;;;;;;;7.82;3.72;;;;;;;17.52;94.00;98753.78;5134704;27;20130;-77
2023/07/06 02:27:50;;;;;;;10.25;4.90;;;;;;;17.52;93.87;98753.78;5150023;27;20073;-77
2023/07/06 02:30:35;;;;;;;11.55;4.00;;;;;;;17.64;93.60;98743.88;5149641;27;20514;-77
2023/07/06 02:33:20;;;;;;;8.90;3.80;;;;;;;17.74;93.43;98740.53;5151597;27;20535;-77
2023/07/06 02:36:04;;;;;;;9.57;4.10;;;;;;;17.72;93.37;98737.31;5150262;27;20046;-78
2023/07/06 02:38:51;;;;;;;9.68;4.05;;;;;;;17.78;92.68;98732.84;5150228;27;20083;-77
2023/07/06 02:41:36;;;;;;;8.93;3.85;;;;;;;17.88;92.72;98734.78;5147971;27;20130;-77
2023/07/06 02:44:21;;;;;;;10.75;3.72;;;;;;;17.81;92.87;98738.47;5132638;27;20034;-77
2023/07/06 02:47:06;;;;;;;8.90;3.67;;;;;;;18.10;91.82;98735.59;5134504;27;20095;-77
2023/07/06 02:49:50;;;;;;;10.07;3.50;;;;;;;18.06;91.29;98726.50;5131574;27;20716;-77
2023/07/06 02:52:34;;;;;;;9.02;3.95;;;;;;;17.90;91.98;98727.41;5150773;27;20045;-78
2023/07/06 02:55:18;;;;;;;8.60;3.30;;;;;;;18.11;91.39;98739.03;5134732;27;21451;-77
2023/07/06 02:58:02;;;;;;;7.30;3.63;;;;;;;17.99;91.83;98736.50;5150317;27;20083;-77
2023/07/06 03:00:50;;;;;;;7.10;3.30;;;;;;;17.84;91.95;98730.00;5129238;28;21978;-78
2023/07/06 03:03:33;;;;;;;9.10;3.42;;;;;;;17.97;91.44;98728.00;5130289;27;20066;-77
2023/07/06 03:06:18;;;;;;;7.47;3.47;;;;;;;17.87;91.87;98728.69;5131225;27;20060;-77
2023/07/06 03:09:03;;;;;;;9.50;3.70;;;;;;;17.76;92.54;98727.78;5132570;27;20046;-78
2023/07/06 03:11:49;;;;;;;6.78;3.72;;;;;;;17.93;91.91;98737.53;5133678;27;20092;-77
2023/07/06 03:14:33;;;;;;;8.50;3.33;;;;;;;17.90;91.95;98738.03;5133262;27;20050;-77
2023/07/06 03:17:17;;;;;;;5.80;3.10;;;;;;;18.03;91.59;98726.22;5131452;27;20039;-77
2023/07/06 03:20:12;;;;;;;4.45;2.95;;;;;;;17.89;91.69;98741.75;5133378;27;20168;-77
2023/07/06 03:22:56;;;;;;;10.40;3.38;;;;;;;17.69;92.40;98738.59;5133225;27;20404;-77
2023/07/06 03:25:40;;;;;;;8.60;3.58;;;;;;;17.78;92.48;98754.06;5134138;27;20084;-76
2023/07/06 03:28:25;;;;;;;9.02;2.97;;;;;;;17.73;92.49;98741.56;5131707;27;20085;-77
2023/07/06 03:31:09;;;;;;;8.07;3.13;;;;;;;17.50;93.27;98748.75;5132418;27;20542;-78
2023/07/06 03:33:53;;;;;;;5.30;2.90;;;;;;;17.72;92.55;98737.31;5132534;27;20122;-77
2023/07/06 03:36:39;;;;;;;5.78;3.60;;;;;;;17.87;92.42;98746.47;5132982;27;20504;-77
2023/07/06 03:39:22;;;;;;;11.52;4.53;;;;;;;17.76;92.52;98743.72;5132312;27;20042;-77
2023/07/06 03:42:08;;;;;;;7.03;4.10;;;;;;;17.75;92.44;98743.97;5129341;27;20065;-78
2023/07/06 03:44:55;;;;;;;14.73;3.90;;;;;;;17.85;92.60;98746.75;5133375;27;20050;-77
2023/07/06 03:47:42;;;;;;;7.40;4.47;;;;;;;17.93;91.93;98737.53;5132474;27;20495;-77
2023/07/06 03:50:26;;;;;;;10.40;4.53;;;;;;;18.12;91.50;98741.47;5131259;27;20522;-77
2023/07/06 03:53:10;;;;;;;11.27;5.18;;;;;;;18.39;90.68;98735.31;5132110;27;20042;-77
2023/07/06 03:55:54;;;;;;;8.38;5.00;;;;;;;18.26;90.67;98747.16;5132246;27;20070;-78
2023/07/06 03:58:38;;;;;;;8.15;4.85;;;;;;;18.24;90.85;98751.09;5133473;27;20038;-77
2023/07/06 04:01:32;;;;;;;6.25;4.45;;;;;;;18.22;90.98;98750.56;5132306;27;20096;-77
2023/07/06 04:04:18;;;;;;;8.95;4.75;;;;;;;18.21;90.96;98747.13;5130812;27;20045;-77
2023/07/06 04:07:02;;;;;;;6.97;4.68;;;;;;;18.18;91.08;98738.84;5131782;27;20095;-78
2023/07/06 04:09:46;;;;;;;8.30;4.57;;;;;;;18.25;90.88;98742.91;5130572;27;20042;-77
2023/07/06 04:12:32;;;;;;;9.98;4.82;;;;;;;18.27;90.43;98737.31;5131309;27;20073;-77
2023/07/06 04:15:17;;;;;;;7.03;4.25;;;;;;;18.26;90.11;98743.69;5130489;27;20042;-78
2023/07/06 04:18:03;;;;;;;11.15;3.97;;;;;;;18.39;90.07;98750.47;5130735;27;20042;-77
2023/07/06 04:20:52;;;;;;;10.35;4.03;;;;;;;18.41;89.93;98743.81;5131950;27;20034;-78
2023/07/06 04:23:36;;;;;;;8.88;4.07;;;;;;;18.48;89.18;98740.97;5131364;27;20079;-77
2023/07/06 04:26:21;;;;;;;10.65;3.65;;;;;;;18.56;89.17;98750.31;5131632;27;20442;-77
2023/07/06 04:29:10;;;;;;;8.60;3.65;;;;;;;18.53;89.16;98750.84;5130295;27;20519;-77
2023/07/06 04:31:55;;;;;;;10.50;3.80;;;;;;;18.63;88.94;98750.91;5132792;27;20046;-77
2023/07/06 04:34:40;;;;;;;6.65;3.38;;;;;;;18.68;88.64;98760.78;5130814;27;20128;-77
2023/07/06 04:37:24;;;;;;;8.18;3.40;;;;;;;18.67;88.38;98757.31;5129865;27;20423;-77
2023/07/06 04:40:13;;;;;;;8.52;3.80;;;;;;;18.76;88.10;98754.97;5129044;27;20515;-78
2023/07/06 04:42:57;;;;;;;6.82;3.25;;;;;;;18.74;88.02;98750.97;5130923;27;20046;-77
2023/07/06 04:45:41;;;;;;;10.75;4.13;;;;;;;18.77;88.04;98756.59;5130458;27;20050;-78
2023/07/06 04:48:26;;;;;;;8.48;3.47;;;;;;;18.80;88.09;98755.25;5131122;27;20042;-77
2023/07/06 04:51:11;;;;;;;10.63;4.35;;;;;;;18.92;87.95;98763.88;5131341;27;20050;-77
2023/07/06 04:53:56;;;;;;;6.85;3.80;;;;;;;18.68;88.06;98755.44;5129293;27;20111;-79
2023/07/06 04:56:41;;;;;;;5.40;3.38;;;;;;;18.80;87.99;98750.75;5131094;27;20030;-77
2023/07/06 04:59:25;;;;;;;8.80;3.45;;;;;;;18.98;87.61;98754.88;5131421;27;20068;-79
2023/07/06 05:02:10;;;;;;;9.60;3.40;;;;;;;19.11;87.03;98755.50;5134054;27;20430;-77
2023/07/06 05:04:54;;;;;;;6.40;3.35;;;;;;;19.03;87.48;98764.75;5136286;27;20081;-78
2023/07/06 05:07:41;;;;;;;7.10;3.10;;;;;;;19.16;87.28;98752.84;5151352;27;20049;-77
2023/07/06 05:10:26;;;;;;;5.90;3.40;;;;;;;19.19;86.50;98741.69;5136683;27;20525;-78
2023/07/06 05:13:10;;;;;;;8.57;3.63;;;;;;;19.08;86.66;98748.03;5137046;27;20050;-77
2023/07/06 05:15:54;;;;;;;13.02;4.18;;;;;;;19.17;86.55;98751.00;5149188;27;20095;-77
2023/07/06 05:18:38;;;;;;;7.95;3.80;;;;;;;18.94;87.30;98761.75;5151069;27;20045;-77
2023/07/06 05:21:22;;;;;;;10.93;4.05;;;;;;;19.18;86.95;98756.06;5136717;27;20041;-77
2023/07/06 05:24:06;;;;;;;10.73;4.30;;;;;;;19.20;86.91;98761.91;5151605;27;20037;-78
2023/07/06 05:26:50;;;;;;;7.63;3.08;;;;;;;19.35;86.33;98750.53;5136585;27;20114;-77
2023/07/06 05:29:34;;;;;;;9.68;3.53;;;;;;;19.40;86.29;98763.06;5151971;27;20068;-76
2023/07/06 05:32:18;;;;;;;10.10;3.80;;;;;;;19.63;85.58;98758.38;5151483;27;20080;-77
2023/07/06 05:35:08;;;;;;;9.13;3.50;;;;;;;19.70;85.55;98764.25;5151099;27;20099;-77
2023/07/06 05:37:52;;;;;;;10.55;3.83;;;;;;;19.71;85.45;98763.19;5134077;27;20102;-77
2023/07/06 05:40:39;;;;;;;5.80;4.07;;;;;;;20.06;84.03;98761.72;5135736;27;20037;-77
2023/07/06 05:43:23;;;;;;;8.00;3.65;;;;;;;20.15;84.35;98762.00;5151626;27;20072;-78
2023/07/06 05:46:07;;;;;;;7.30;3.92;;;;;;;20.41;83.40;98770.78;5150268;27;20122;-78
2023/07/06 05:48:53;;;;;;;7.30;3.22;;;;;;;20.55;83.14;98770.28;5150994;27;20114;-77
2023/07/06 05:51:37;;;;;;;11.15;3.40;;;;;;;20.39;82.89;98767.59;5148797;27;20509;-78
2023/07/06 05:54:24;;;;;;;8.18;3.45;;;;;;;20.27;83.12;98759.09;5135663;27;20046;-78
2023/07/06 05:57:13;;;;;;;6.75;3.40;;;;;;;20.40;81.94;98771.88;5134663;27;20114;-78
2023/07/06 05:59:58;;;;;;;7.30;4.40;;;;;;;20.54;83.33;98772.16;5150741;27;20131;-77
2023/07/06 06:02:45;;;;;;;11.00;4.38;;;;;;;20.71;82.99;98783.59;5151927;27;20095;-79
2023/07/06 06:05:29;;;;;;;8.00;4.28;;;;;;;20.92;82.21;98777.19;5134439;27;20041;-79
2023/07/06 06:08:16;;;;;;;7.90;4.13;;;;;;;20.97;82.32;98774.53;5134887;27;20054;-79
2023/07/06 06:11:00;;;;;;;14.38;5.20;;;;;;;21.24;81.18;98780.59;5136050;27;20103;-79
2023/07/06 06:13:44;;;;;;;12.02;4.57;;;;;;;20.97;80.69;98779.84;5147247;27;20041;-80
2023/07/06 06:16:28;;;;;;;10.18;4.80;;;;;;;21.20;81.12;98785.66;5148120;27;20040;-80
2023/07/06 06:19:12;;;;;;;9.88;4.68;;;;;;;21.16;80.32;98783.84;5149156;27;20526;-80
2023/07/06 06:21:56;;;;;;;10.95;4.80;;;;;;;21.31;79.62;98786.44;5151320;27;20042;-81
2023/07/06 06:24:40;;;;;;;10.65;4.97;;;;;;;21.68;79.17;98779.91;5149755;27;20042;-78
2023/07/06 06:27:24;;;;;;;12.80;5.03;;;;;;;21.64;78.36;98788.75;5133999;27;20052;-79
2023/07/06 06:30:09;;;;;;;15.50;5.38;;;;;;;22.00;77.92;98791.25;5146617;27;20045;-78
2023/07/06 06:32:56;;;;;;;12.02;5.82;;;;;;;21.87;77.35;98791.88;5131676;27;20090;-78
2023/07/06 06:35:40;;;;;;;8.20;4.50;;;;;;;21.95;77.68;98797.44;5135251;27;20041;-79
2023/07/06 06:38:25;;;;;;;9.25;4.63;;;;;;;22.14;77.51;98801.31;5138640;27;20034;-79
2023/07/06 06:41:12;;;;;;;5.57;4.32;;;;;;;22.43;76.44;98793.38;5137008;27;20117;-80
2023/07/06 06:43:57;;;;;;;8.02;4.47;;;;;;;21.99;77.01;98796.88;5137846;27;20481;-78
2023/07/06 06:46:41;;;;;;;8.05;5.05;;;;;;;22.32;75.89;98803.34;5154025;27;20057;-80
2023/07/06 06:49:25;;;;;;;6.20;4.28;;;;;;;22.28;75.42;98807.66;5137591;27;20058;-82
2023/07/06 06:52:10;;;;;;;10.60;5.05;;;;;;;22.48;75.82;98805.94;5151585;27;20058;-78
2023/07/06 06:54:54;;;;;;;8.15;4.15;;;;;;;22.27;75.30;98803.38;5151585;27;20046;-79
2023/07/06 06:57:38;;;;;;;12.65;5.25;;;;;;;22.33;75.48;98807.59;5148429;27;20054;-77
2023/07/06 07:00:23;;;;;;;7.82;4.30;;;;;;;22.54;75.33;98823.53;5151490;27;20205;-77
2023/07/06 07:03:10;;;;;;;9.23;4.72;;;;;;;22.36;75.33;98825.78;5134978;27;20412;-78
2023/07/06 07:06:03;;;;;;;6.13;4.55;;;;;;;22.52;75.23;98806.97;5151637;27;20091;-78
2023/07/06 07:08:51;;;;;;;9.93;4.87;;;;;;;22.26;75.46;98815.16;5152530;27;20118;-77
2023/07/06 07:11:36;;;;;;;10.82;5.25;;;;;;;22.06;75.28;98816.06;5137246;27;20552;-78
2023/07/06 07:14:20;;;;;;;5.72;4.70;;;;;;;21.99;74.53;98827.06;5150469;27;20045;-78
2023/07/06 07:17:07;;;;;;;7.85;4.72;;;;;;;22.04;74.28;98821.69;5150392;27;20106;-80
2023/07/06 07:19:51;;;;;;;6.32;4.53;;;;;;;22.13;74.71;98821.91;5137185;27;20060;-78
2023/07/06 07:22:35;;;;;;;11.48;4.55;;;;;;;22.26;74.12;98818.63;5138564;27;20045;-82
2023/07/06 07:25:19;;;;;;;7.82;4.53;;;;;;;22.15;74.02;98829.66;5154821;27;20045;-83
2023/07/06 07:28:05;;;;;;;11.18;4.80;;;;;;;21.81;74.46;98826.63;5154833;27;20053;-82
2023/07/06 07:30:57;;;;;;;6.72;4.25;;;;;;;21.47;74.71;98819.25;5148732;27;20122;-85
2023/07/06 07:33:42;;;;;;;10.02;3.90;;;;;;;21.25;75.03;98817.72;5154806;27;20049;-81
2023/07/06 07:36:27;;;;;;;6.22;4.03;;;;;;;20.62;75.90;98829.44;5151887;27;20045;-81
2023/07/06 07:39:11;;;;;;;5.70;4.53;;;;;;;21.17;75.29;98828.91;5149469;27;20055;-80
2023/07/06 07:41:56;;;;;;;8.00;4.47;;;;;;;21.67;74.45;98829.06;5147706;27;20168;-82
2023/07/06 07:44:47;;;;;;;5.60;4.13;;;;;;;22.42;73.71;98831.88;5137470;27;20078;-82
2023/07/06 07:47:31;;;;;;;7.25;3.70;;;;;;;22.27;72.82;98830.13;5151950;27;20057;-82
2023/07/06 07:50:15;;;;;;;8.25;3.83;;;;;;;22.47;72.57;98836.44;5152624;27;20115;-82
2023/07/06 07:52:59;;;;;;;6.47;4.22;;;;;;;22.20;72.68;98837.63;5153591;27;20049;-82
2023/07/06 07:55:43;;;;;;;6.55;4.60;;;;;;;22.47;72.94;98842.56;5138312;27;20445;-83
2023/07/06 07:58:27;;;;;;;6.20;4.20;;;;;;;22.32;71.21;98838.09;5153973;27;20460;-81
2023/07/06 08:01:13;;;;;;;8.90;4.25;;;;;;;22.05;71.48;98835.84;5153093;27;20077;-80
2023/07/06 08:03:57;;;;;;;5.88;3.92;;;;;;;22.16;71.96;98837.41;5153187;27;20041;-81
2023/07/06 08:06:41;;;;;;;6.05;4.00;;;;;;;22.25;70.32;98841.06;5151554;27;20041;-82
2023/07/06 08:09:25;;;;;;;8.48;3.38;;;;;;;22.47;70.31;98834.53;5150187;27;20042;-80
2023/07/06 08:12:10;;;;;;;8.68;4.63;;;;;;;22.39;68.76;98830.56;5151133;27;20111;-80
2023/07/06 08:14:54;;;;;;;6.30;3.97;;;;;;;22.54;69.64;98831.56;5154050;27;20127;-80
2023/07/06 08:17:38;;;;;;;6.30;3.53;;;;;;;22.60;67.93;98833.13;5153579;27;20103;-80
2023/07/06 08:20:22;;;;;;;7.53;4.13;;;;;;;22.67;68.60;98835.47;5135872;27;20137;-80
2023/07/06 08:23:10;;;;;;;7.75;4.15;;;;;;;23.11;67.77;98833.75;5151517;27;20039;-80
2023/07/06 08:25:57;;;;;;;11.43;3.55;;;;;;;22.40;66.35;98834.84;5153009;27;20437;-80
2023/07/06 08:28:41;;;;;;;6.68;3.40;;;;;;;22.42;66.08;98837.22;5147903;27;20053;-80
2023/07/06 08:31:26;;;;;;;8.35;3.60;;;;;;;22.97;66.89;98829.06;5150984;27;20070;-80
2023/07/06 08:34:12;;;;;;;7.20;3.55;;;;;;;23.31;67.50;98827.44;5152919;27;20091;-80
2023/07/06 08:36:56;;;;;;;5.22;3.20;;;;;;;24.03;65.05;98820.44;5150178;27;20037;-81
2023/07/06 08:39:40;;;;;;;11.63;4.07;;;;;;;24.23;63.94;98821.22;5151988;27;20107;-78
2023/07/06 08:42:24;;;;;;;6.07;3.58;;;;;;;23.76;62.45;98826.38;5153228;27;20522;-80
2023/07/06 08:45:16;;;;;;;9.35;3.63;;;;;;;24.52;61.95;98823.72;5151044;27;20049;-83
2023/07/06 08:48:02;;;;;;;10.30;3.38;;;;;;;25.17;60.39;98825.88;5150823;27;20097;-83
2023/07/06 08:50:53;;;;;;;6.05;3.55;;;;;;;25.52;60.40;98827.09;5151726;27;20033;-83
2023/07/06 08:53:43;;;;;;;6.90;4.03;;;;;;;25.06;59.55;98822.59;5148328;27;20491;-83
2023/07/06 08:56:33;;;;;;;8.60;3.30;;;;;;;25.11;59.80;98825.19;5152086;27;20445;-83
2023/07/06 08:59:32;;;;;;;8.23;3.92;;;;;;;25.24;57.56;98828.97;5152384;27;20041;-82
2023/07/06 09:02:19;;;;;;;5.65;3.40;;;;;;;25.50;57.57;98829.31;5150939;27;20092;-83
2023/07/06 09:05:12;;;;;;;7.90;3.50;;;;;;;25.28;56.97;98829.19;5154834;27;20046;-82
2023/07/06 09:07:57;;;;;;;6.75;3.20;;;;;;;25.47;56.04;98837.97;5133839;27;20062;-80
2023/07/06 09:10:41;;;;;;;4.53;3.40;;;;;;;25.35;56.55;98834.94;5152933;27;20400;-83
2023/07/06 09:13:28;;;;;;;4.72;3.30;;;;;;;25.33;55.85;98831.75;5154316;27;20095;-84
2023/07/06 09:16:15;;;;;;;7.50;3.40;;;;;;;24.86;55.33;98824.53;5152956;27;20041;-84
2023/07/06 09:19:08;;;;;;;4.90;3.30;;;;;;;24.91;57.59;98832.50;5152855;27;20042;-83
2023/07/06 09:21:56;;;;;;;6.22;3.35;;;;;;;25.09;56.70;98828.19;5152855;27;20049;-83
2023/07/06 09:24:44;;;;;;;7.93;3.67;;;;;;;25.85;58.18;98825.38;5152991;27;20042;-82
2023/07/06 09:27:31;;;;;;;3.77;3.47;;;;;;;25.75;55.07;98821.84;5152054;27;20436;-83
2023/07/06 09:30:29;;;;;;;6.25;3.97;;;;;;;26.00;55.60;98833.13;5151244;27;20049;-83
2023/07/06 09:33:19;;;;;;;4.35;3.45;;;;;;;26.75;55.75;98823.91;5150808;27;20037;-82
2023/07/06 09:36:05;;;;;;;6.03;3.35;;;;;;;26.57;53.98;98829.19;5137017;27;20574;-80
2023/07/06 09:38:49;;;;;;;5.65;3.53;;;;;;;26.97;52.31;98825.00;5132948;27;20384;-80
2023/07/06 09:41:33;;;;;;;5.88;3.47;;;;;;;25.96;52.70;98826.78;5150389;27;21039;-80
2023/07/06 09:44:28;;;;;;;4.50;3.25;;;;;;;25.92;53.80;98812.31;5151009;27;20091;-78
2023/07/06 09:47:12;;;;;;;8.50;3.47;;;;;;;25.61;53.42;98816.44;5147826;27;20049;-80
2023/07/06 09:50:18;;;;;;;6.57;3.60;;;;;;;24.81;54.48;98827.31;5135140;27;20479;-80
2023/07/06 09:53:05;;;;;;;4.88;3.70;;;;;;;24.28;53.68;98833.75;5148850;27;20069;-80
2023/07/06 09:55:49;;;;;;;6.38;3.10;;;;;;;24.28;55.34;98831.88;5135335;27;20499;-80
2023/07/06 09:58:34;;;;;;;7.00;3.22;;;;;;;24.68;55.87;98835.00;5132527;27;20037;-80
2023/07/06 10:01:37;;;;;;;3.58;3.25;;;;;;;24.88;54.57;98827.72;5152666;27;20106;-80
2023/07/06 10:04:49;;;;;;;8.77;3.10;;;;;;;25.28;53.69;98826.50;5152214;27;20053;-80
2023/07/06 10:07:33;;;;;;;6.67;3.40;;;;;;;26.26;54.98;98819.13;5154166;27;20079;-81
2023/07/06 10:10:36;;;;;;;4.30;3.08;;;;;;;26.60;51.30;98822.38;5153088;27;20045;-81
2023/07/06 10:13:35;;;;;;;4.47;3.38;;;;;;;26.74;49.59;98830.41;5132502;27;20041;-79
2023/07/06 10:16:51;;;;;;;3.70;2.72;;;;;;;26.48;49.28;98831.81;5136575;27;20042;-81
2023/07/06 10:19:55;;;;;;;5.70;3.00;;;;;;;26.84;48.36;98832.81;5149780;27;20033;-81
2023/07/06 10:23:07;;;;;;;3.75;3.10;;;;;;;27.06;47.75;98834.72;5152498;27;20042;-82
2023/07/06 10:26:00;;;;;;;3.60;2.90;;;;;;;27.02;47.69;98849.09;5151603;27;20436;-82
2023/07/06 10:28:58;;;;;;;8.32;3.10;;;;;;;26.86;47.77;98836.03;5150662;27;20042;-81
2023/07/06 10:32:04;;;;;;;11.00;3.35;;;;;;;26.48;47.23;98831.00;5136774;27;20050;-83
2023/07/06 10:34:56;;;;;;;4.57;2.80;;;;;;;26.37;47.83;98836.63;5150729;27;20088;-82
2023/07/06 10:37:42;;;;;;;7.45;3.17;;;;;;;26.66;48.04;98840.78;5148942;27;20098;-81
2023/07/06 10:40:29;;;;;;;10.10;3.00;;;;;;;26.27;48.22;98847.63;5147650;27;20583;-81
2023/07/06 10:43:13;;;;;;;5.03;2.70;;;;;;;26.64;48.16;98844.91;5149967;27;20045;-80
2023/07/06 10:45:59;;;;;;;5.07;3.28;;;;;;;27.56;47.66;98845.53;5150214;27;20118;-80
2023/07/06 10:48:43;;;;;;;5.68;2.78;;;;;;;27.73;45.69;98850.97;5151206;27;20467;-81
2023/07/06 10:51:28;;;;;;;4.70;3.00;;;;;;;28.06;46.02;98842.44;5151540;27;20095;-81
2023/07/06 10:54:19;;;;;;;4.20;3.22;;;;;;;28.57;44.95;98855.50;5151469;27;20793;-81
2023/07/06 10:57:11;;;;;;;5.80;3.70;;;;;;;28.83;43.85;98859.28;5134361;27;20427;-81
2023/07/06 11:00:05;;;;;;;3.65;3.20;;;;;;;28.73;44.79;98863.88;5149117;27;20083;-82
2023/07/06 11:02:54;;;;;;;3.97;3.35;;;;;;;28.35;44.66;98859.16;5150731;27;20106;-81
2023/07/06 11:05:52;;;;;;;5.43;3.33;;;;;;;27.28;44.45;98854.63;5151924;27;20053;-81
2023/07/06 11:09:05;;;;;;;3.50;3.20;;;;;;;27.97;45.35;98865.94;5150234;27;20400;-81
2023/07/06 11:11:49;;;;;;;3.90;3.53;;;;;;;27.72;45.06;98860.19;5149830;27;20123;-82
2023/07/06 11:14:35;;;;;;;6.70;3.35;;;;;;;28.11;45.26;98865.78;5150549;27;20438;-81
2023/07/06 11:17:36;;;;;;;6.00;2.88;;;;;;;28.08;45.17;98861.03;5149645;27;20053;-82
2023/07/06 11:20:23;;;;;;;4.63;3.35;;;;;;;27.63;45.52;98862.84;5135691;27;20501;-81
2023/07/06 11:23:13;;;;;;;7.82;3.50;;;;;;;27.41;46.20;98866.38;5135984;27;20512;-81
2023/07/06 11:25:59;;;;;;;6.85;3.30;;;;;;;26.27;47.51;98863.75;5154366;27;20049;-81
2023/07/06 11:28:43;;;;;;;4.53;3.67;;;;;;;26.15;47.10;98864.25;5153732;27;20664;-81
2023/07/06 11:31:45;;;;;;;6.10;3.15;;;;;;;26.69;47.92;98862.81;5154481;27;20037;-82
2023/07/06 11:34:57;;;;;;;4.88;3.22;;;;;;;27.66;47.53;98872.19;5134029;27;20076;-77
2023/07/06 11:38:05;;;;;;;5.93;3.85;;;;;;;28.00;47.47;98859.91;5152165;27;20137;-77
2023/07/06 11:41:17;;;;;;;10.25;3.42;;;;;;;28.65;46.42;98849.28;5153639;27;20077;-80
2023/07/06 11:44:32;;;;;;;4.57;3.55;;;;;;;28.84;46.01;98853.56;5139995;27;20436;-80
2023/07/06 11:47:41;;;;;;;4.13;3.03;;;;;;;29.38;45.84;98854.97;5154223;27;20519;-82
2023/07/06 11:50:36;;;;;;;6.13;3.15;;;;;;;28.42;45.23;98853.28;5139318;27;20091;-82
2023/07/06 11:56:50;;;;;;;7.82;3.80;;;;;;;29.31;45.97;98852.00;5154530;27;22264;-82
2023/07/06 11:59:38;;;;;;;7.80;3.38;;;;;;;29.20;46.72;98860.44;5153319;27;20049;-81
2023/07/06 12:02:26;;;;;;;6.38;3.45;;;;;;;29.28;47.67;98863.44;5138742;27;20049;-81
2023/07/06 12:05:45;;;;;;;7.15;3.40;;;;;;;28.49;47.32;98875.19;5153392;27;20066;-84
2023/07/06 12:08:36;;;;;;;3.92;3.38;;;;;;;28.70;47.17;98879.94;5137222;27;20103;-83
2023/07/06 12:11:23;;;;;;;6.90;3.45;;;;;;;28.80;47.38;98885.03;5154094;27;20049;-83
2023/07/06 12:14:20;;;;;;;4.18;3.55;;;;;;;28.29;47.82;98880.09;5155203;27;20041;-83
2023/07/06 12:17:06;;;;;;;7.07;3.47;;;;;;;27.79;47.96;98887.47;5139066;27;20049;-83
2023/07/06 12:19:57;;;;;;;6.65;3.90;;;;;;;27.48;48.93;98882.91;5137732;27;20042;-84
2023/07/06 12:22:54;;;;;;;10.93;3.85;;;;;;;27.42;49.22;98886.84;5154479;27;20064;-84
2023/07/06 12:25:41;;;;;;;7.28;3.85;;;;;;;27.62;48.25;98882.03;5153686;27;20119;-82
2023/07/06 12:28:29;;;;;;;6.32;3.70;;;;;;;27.43;49.74;98891.13;5153763;27;20399;-83
2023/07/06 12:31:15;;;;;;;3.97;3.58;;;;;;;27.39;48.76;98876.69;5154359;27;20102;-83
2023/07/06 12:34:00;;;;;;;5.53;3.38;;;;;;;27.58;48.06;98884.53;5137654;27;20045;-83
2023/07/06 12:36:49;;;;;;;5.65;3.42;;;;;;;27.36;47.56;98880.78;5153793;27;20069;-83
2023/07/06 12:39:38;;;;;;;6.53;3.65;;;;;;;27.63;48.09;98875.53;5154223;27;20079;-84
2023/07/06 12:42:23;;;;;;;7.88;3.72;;;;;;;27.84;47.50;98873.06;5152213;27;20077;-83
2023/07/06 12:45:08;;;;;;;5.97;3.50;;;;;;;27.63;47.18;98878.22;5151938;27;20063;-83
2023/07/06 12:47:58;;;;;;;4.32;3.50;;;;;;;27.97;46.76;98868.63;5154664;27;20057;-82
2023/07/06 12:50:46;;;;;;;6.55;3.70;;;;;;;27.82;47.41;98864.50;5152828;27;20499;-81
2023/07/06 12:53:34;;;;;;;5.47;3.45;;;;;;;27.87;47.04;98866.22;5153441;27;20060;-84
2023/07/06 12:56:20;;;;;;;4.03;3.33;;;;;;;27.93;47.20;98873.06;5154218;27;20103;-83
2023/07/06 12:59:05;;;;;;;6.28;3.58;;;;;;;27.74;47.93;98874.16;5151511;27;20491;-81
2023/07/06 13:01:49;;;;;;;6.35;4.15;;;;;;;27.84;47.47;98870.34;5138507;27;20065;-81
2023/07/06 13:04:45;;;;;;;4.45;3.25;;;;;;;28.35;47.58;98857.25;5152899;27;20038;-82
2023/07/06 13:07:31;;;;;;;5.90;4.15;;;;;;;29.11;46.47;98862.41;5152950;27;20045;-81
2023/07/06 13:10:18;;;;;;;5.00;3.60;;;;;;;29.43;45.61;98856.72;5153432;27;20107;-82
2023/07/06 13:13:27;;;;;;;4.88;3.67;;;;;;;29.32;46.50;98851.66;5152636;27;20045;-82